Burns, Texas
Current Conditions -  °F | °C
As of 9:53 PM on Thursday 27 Nov 2014 (Local Time) from KTXK Reporting Station
Clear Clear  
Wind Chill: 36°   Ceiling: Unl
Heat Index: 39°   Visibility: 10mi
Dew Point: 31°   Wind: 5mph
Humidity: 73%   Direction: 110°ESE
Pressure: 30.44"   Gusts: NA
Location:  33.474°N, 94.2882°W
Report Text: KTXK 280353Z AUTO 11004KT 10SM CLR 04/M01 A3044 RMK AO2 SLP307 T00391006
Loading
Personal Weather Stations






























Interactive Weather Map New forecast layout! Learn more

10-Day Weather Forecast

Advertisements
Track Severe Weather on mobile